CDT,Max TemperatureF,Mean TemperatureF,Min TemperatureF,Max Dew PointF,MeanDew PointF,Min DewpointF,Max Humidity, Mean Humidity, Min Humidity, Max Sea Level PressureIn, Mean Sea Level PressureIn, Min Sea Level PressureIn, Max VisibilityMiles, Mean VisibilityMiles, Min VisibilityMiles, Max Wind SpeedMPH, Mean Wind SpeedMPH, Max Gust SpeedMPH,PrecipitationIn, CloudCover, Events, WindDirDegrees
2013-3-1,58,48,38,35,31,26,76,54,32,30.18,30.14,30.09,10,10,10,23,7,28,0.00,0,,307
2013-3-2,47,39,30,32,27,23,92,69,45,30.28,30.23,30.19,10,10,8,15,4,23,0.00,3,,334
2013-3-3,56,41,26,34,27,23,92,61,30,30.31,30.23,30.12,10,9,6,12,3,15,0.00,0,,225
2013-3-4,72,55,37,57,47,34,92,70,47,30.12,30.01,29.92,10,10,8,22,12,33,0.00,3,,174
2013-3-5,74,64,53,61,49,28,90,59,28,30.23,30.04,29.91,10,10,10,21,10,30,0.00,4,,269
2013-3-6,64,51,38,29,25,21,54,37,20,30.36,30.28,30.23,10,10,10,15,6,20,0.00,0,,340
2013-3-7,66,49,32,40,32,28,85,55,24,30.37,30.28,30.23,10,10,10,9,2,13,0.00,0,,85
2013-3-8,72,54,36,45,38,32,92,61,30,30.30,30.23,30.14,10,10,8,12,4,21,0.00,0,,108
2013-3-9,71,60,48,58,53,45,86,74,61,30.16,30.07,29.94,10,9,5,18,8,25,0.00,3,,109
2013-3-10,80,67,54,63,58,53,97,73,48,29.96,29.91,29.83,10,8,2,36,13,44,0.44,7,Rain,160
2013-3-11,59,52,44,54,45,34,100,72,43,30.06,29.96,29.92,10,6,2,17,7,24,1.90,6,Rain,319
2013-3-12,68,53,37,42,36,33,92,61,29,30.23,30.14,30.06,10,10,10,13,3,22,0.00,0,,326
2013-3-13,68,54,39,41,29,20,92,55,18,30.42,30.34,30.25,10,10,10,16,5,25,0.00,0,,8
2013-3-14,69,53,37,44,31,25,82,52,22,30.46,30.37,30.30,10,10,10,14,4,17,0.00,0,,114
2013-3-15,76,60,43,51,45,39,96,62,27,30.31,30.22,30.13,10,10,10,20,8,25,0.00,0,,212
2013-3-16,76,64,51,56,52,50,100,72,43,30.12,30.03,29.94,10,10,8,20,9,25,0.00,1,,185
2013-3-17,80,68,55,65,59,54,100,74,47,29.96,29.90,29.81,10,9,5,23,9,28,T,3,,165
2013-3-18,82,74,65,67,65,60,93,72,51,29.92,29.83,29.76,10,9,6,18,11,22,T,6,,200
2013-3-19,78,65,51,59,48,40,84,58,31,30.04,29.98,29.94,10,10,10,15,8,21,0.00,2,,55
2013-3-20,71,59,47,47,35,20,83,49,15,30.19,30.09,30.01,10,10,2,16,5,23,0.03,2,Rain,19
2013-3-21,67,56,45,44,34,30,65,46,26,30.07,29.97,29.86,10,10,10,16,7,21,0.00,3,,103
2013-3-22,77,67,56,66,59,45,93,79,64,29.88,29.81,29.74,10,10,8,14,7,20,0.03,7,Rain,119
2013-3-23,70,67,64,67,65,64,100,94,87,29.82,29.73,29.57,10,4,0,14,6,18,0.01,8,Fog,90
2013-3-24,66,55,44,66,49,28,100,65,29,30.06,29.78,29.62,10,9,2,23,10,35,0.00,5,Rain,308
2013-3-25,58,47,35,30,24,17,82,52,22,30.29,30.18,30.07,10,10,10,22,6,31,0.00,0,,319
2013-3-26,56,45,33,30,23,19,75,51,26,30.43,30.37,30.30,10,10,10,20,6,26,0.00,0,Rain,340
2013-3-27,64,47,29,37,29,24,92,57,22,30.46,30.37,30.27,10,10,10,12,3,16,0.00,0,,119
2013-3-28,72,54,36,46,37,31,92,58,24,30.37,30.30,30.23,10,10,10,10,3,29,0.00,0,,138
2013-3-29,76,60,43,50,46,41,100,67,33,30.31,30.24,30.18,10,10,5,16,6,36,0.00,0,,182
2013-3-30,77,64,50,58,54,50,100,72,43,30.19,30.11,30.03,10,9,3,20,8,25,T,1,Rain,193
2013-3-31,77,66,55,63,60,55,100,80,60,30.04,29.98,29.91,10,6,0,31,6,43,0.50,6,Fog-Rain,211